createdAt,value
2018-10-01T00:00:53.837Z,49.20
2018-10-01T00:05:57.719Z,49.20
2018-10-01T00:11:01.501Z,49.20
2018-10-01T00:16:06.232Z,49.30
2018-10-01T00:21:15.351Z,49.40
2018-10-01T00:26:19.218Z,49.40
2018-10-01T00:31:22.910Z,49.40
2018-10-01T00:36:26.788Z,49.40
2018-10-01T00:41:30.552Z,49.50
2018-10-01T00:46:34.232Z,49.50
2018-10-01T00:51:38.415Z,49.60
2018-10-01T00:56:42.208Z,49.60
2018-10-01T01:01:46.002Z,49.60
2018-10-01T01:06:49.818Z,49.70
2018-10-01T01:11:53.836Z,49.80
2018-10-01T01:16:57.512Z,49.70
2018-10-01T01:22:01.235Z,49.70
2018-10-01T01:27:04.926Z,49.90
2018-10-01T01:32:14.012Z,49.90
2018-10-01T01:37:18.200Z,49.90
2018-10-01T01:42:22.256Z,50.00
2018-10-01T01:47:26.348Z,50.10
2018-10-01T01:52:30.052Z,50.00
2018-10-01T01:57:33.832Z,50.10
2018-10-01T02:02:37.473Z,50.00
2018-10-01T02:07:41.442Z,50.00
2018-10-01T02:12:45.684Z,50.00
2018-10-01T02:17:49.526Z,50.00
2018-10-01T02:22:53.421Z,50.10
2018-10-01T02:27:57.110Z,50.10
2018-10-01T02:33:00.719Z,50.70
2018-10-01T02:38:05.015Z,50.10
2018-10-01T02:43:09.089Z,50.20
2018-10-01T02:48:13.411Z,50.20
2018-10-01T02:53:22.289Z,50.20
2018-10-01T02:58:26.126Z,50.20
2018-10-01T03:03:29.840Z,50.20
2018-10-01T03:08:33.625Z,50.20
2018-10-01T03:13:37.346Z,50.20
2018-10-01T03:18:41.425Z,50.30
2018-10-01T03:23:45.120Z,50.10
2018-10-01T03:28:48.777Z,50.30
2018-10-01T03:33:52.559Z,50.30
2018-10-01T03:38:56.160Z,50.30
2018-10-01T03:43:59.901Z,50.40
2018-10-01T03:49:03.612Z,50.30
2018-10-01T03:54:07.298Z,50.40
2018-10-01T03:59:11.013Z,50.40
2018-10-01T04:04:14.808Z,50.30
2018-10-01T04:09:18.882Z,50.40
2018-10-01T04:14:22.596Z,50.30
2018-10-01T04:19:26.405Z,50.30
2018-10-01T04:24:30.171Z,50.40
2018-10-01T04:29:34.016Z,50.50
2018-10-01T04:34:38.057Z,50.30
2018-10-01T04:39:41.759Z,50.40
2018-10-01T04:44:45.547Z,50.30
2018-10-01T04:49:49.565Z,50.20
2018-10-01T04:54:53.616Z,50.30
2018-10-01T04:59:57.708Z,50.30
2018-10-01T05:05:01.539Z,50.40
2018-10-01T05:10:05.607Z,50.30
2018-10-01T05:15:09.263Z,50.40
2018-10-01T05:20:13.092Z,50.30
2018-10-01T05:25:17.373Z,50.30
2018-10-01T05:30:21.145Z,50.60
2018-10-01T05:35:24.848Z,50.30
2018-10-01T05:40:28.801Z,50.50
2018-10-01T05:45:32.548Z,50.40
2018-10-01T05:50:36.297Z,50.40
2018-10-01T05:55:40.073Z,50.60
2018-10-01T06:00:43.832Z,50.60
2018-10-01T06:05:47.693Z,50.60
2018-10-01T06:10:51.441Z,50.60
2018-10-01T06:15:55.872Z,50.60
2018-10-01T06:20:59.902Z,50.60
2018-10-01T06:26:03.597Z,50.50
2018-10-01T06:31:07.474Z,50.40
2018-10-01T06:36:11.456Z,50.40
2018-10-01T06:41:15.117Z,50.30
2018-10-01T06:46:18.879Z,50.40
2018-10-01T06:51:22.650Z,50.50
2018-10-01T06:56:26.385Z,50.40
2018-10-01T07:01:30.310Z,50.50
2018-10-01T07:06:34.179Z,50.60
2018-10-01T07:11:38.689Z,50.50
2018-10-01T07:16:42.557Z,50.40
2018-10-01T07:21:46.666Z,50.50
2018-10-01T07:26:50.496Z,50.50
2018-10-01T07:31:54.220Z,50.50
2018-10-01T07:36:58.046Z,50.50
2018-10-01T07:42:02.199Z,50.40
2018-10-01T07:47:06.126Z,50.40
2018-10-01T07:52:09.808Z,50.60
2018-10-01T07:57:13.761Z,50.50
2018-10-01T08:02:17.345Z,50.50
2018-10-01T08:07:21.085Z,50.50
2018-10-01T08:12:25.033Z,50.50
2018-10-01T08:17:28.970Z,50.40
2018-10-01T08:22:32.877Z,50.30
2018-10-01T08:27:36.449Z,50.40
2018-10-01T08:32:40.318Z,50.30
2018-10-01T08:37:44.084Z,50.40
2018-10-01T08:42:47.786Z,50.40
2018-10-01T08:47:51.643Z,50.50
2018-10-01T08:53:07.923Z,50.20
2018-10-01T08:58:11.857Z,50.20
2018-10-01T09:03:15.669Z,50.20
2018-10-01T09:08:22.676Z,50.20
2018-10-01T09:13:26.468Z,50.20
2018-10-01T09:18:35.627Z,50.20
2018-10-01T09:23:40.830Z,50.30
2018-10-01T09:28:44.753Z,50.90
2018-10-01T09:33:48.853Z,50.10
2018-10-01T09:39:00.627Z,50.00
2018-10-01T09:44:04.549Z,50.00
2018-10-01T09:49:15.528Z,49.80
2018-10-01T09:54:19.919Z,49.80
2018-10-01T09:59:31.053Z,49.70
2018-10-01T10:04:34.829Z,49.60
2018-10-01T10:09:38.447Z,49.70
2018-10-01T10:14:42.326Z,49.80
2018-10-01T10:19:46.460Z,49.80
2018-10-01T10:24:50.129Z,50.10
2018-10-01T10:29:54.545Z,50.30
2018-10-01T10:34:58.495Z,50.30
2018-10-01T10:40:02.311Z,50.20
2018-10-01T10:45:06.623Z,50.10
2018-10-01T10:50:10.789Z,49.80
2018-10-01T10:55:14.792Z,49.90
2018-10-01T11:00:18.801Z,50.00
2018-10-01T11:05:22.950Z,49.90
2018-10-01T11:10:27.330Z,49.70
2018-10-01T11:15:31.352Z,49.70
2018-10-01T11:20:35.762Z,50.20
2018-10-01T11:25:40.150Z,50.80
2018-10-01T11:30:43.988Z,51.30
2018-10-01T11:35:49.085Z,51.60
2018-10-01T11:40:52.835Z,51.70
2018-10-01T11:45:56.629Z,51.80
2018-10-01T11:51:02.165Z,51.90
2018-10-01T11:56:05.977Z,51.60
2018-10-01T12:01:10.310Z,51.50
2018-10-01T12:06:13.962Z,51.70
2018-10-01T12:11:18.065Z,52.00
2018-10-01T12:16:21.803Z,51.90
2018-10-01T12:21:26.293Z,52.20
2018-10-01T12:26:30.176Z,52.10
2018-10-01T12:31:34.539Z,52.10
2018-10-01T12:36:38.687Z,52.10
2018-10-01T12:41:42.648Z,52.10
2018-10-01T12:46:46.476Z,51.80
2018-10-01T12:51:50.581Z,51.80
2018-10-01T12:56:54.971Z,52.80
2018-10-01T13:01:58.890Z,52.30
2018-10-01T13:07:03.256Z,52.30
2018-10-01T13:12:07.014Z,52.10
2018-10-01T13:17:10.863Z,52.40
2018-10-01T13:22:15.232Z,52.10
2018-10-01T13:27:19.072Z,52.30
2018-10-01T13:32:23.072Z,52.40
2018-10-01T13:37:27.533Z,52.60
2018-10-01T13:42:31.986Z,52.40
2018-10-01T13:47:36.010Z,52.20
2018-10-01T13:52:40.019Z,52.00
2018-10-01T13:57:44.166Z,52.20
2018-10-01T14:02:48.119Z,52.20
2018-10-01T14:07:52.511Z,52.10
2018-10-01T14:12:56.554Z,51.80
2018-10-01T14:18:01.603Z,51.40
2018-10-01T14:23:05.438Z,50.80
2018-10-01T14:28:09.555Z,50.50
2018-10-01T14:33:13.334Z,50.60
2018-10-01T14:38:17.719Z,50.40
2018-10-01T14:43:21.576Z,50.00
2018-10-01T14:48:25.552Z,50.10
2018-10-01T14:53:30.303Z,49.90
2018-10-01T14:58:34.236Z,49.90
2018-10-01T15:03:37.937Z,49.70
2018-10-01T15:08:41.984Z,49.80
2018-10-01T15:13:46.033Z,50.10
2018-10-01T15:18:50.047Z,50.40
2018-10-01T15:23:54.232Z,50.70
2018-10-01T15:28:58.959Z,50.70
2018-10-01T15:34:02.548Z,51.30
2018-10-01T15:39:08.880Z,51.00
2018-10-01T15:44:12.754Z,51.10
2018-10-01T15:49:16.600Z,50.90
2018-10-01T15:54:21.097Z,50.80
2018-10-01T15:59:24.888Z,50.80
2018-10-01T16:04:28.982Z,50.70
2018-10-01T16:09:36.601Z,50.70
2018-10-01T16:14:40.419Z,50.70
2018-10-01T16:19:44.346Z,50.90
2018-10-01T16:24:48.308Z,51.50
2018-10-01T16:29:51.983Z,51.00
2018-10-01T16:34:56.049Z,51.00
2018-10-01T16:39:59.756Z,51.00
2018-10-01T16:45:03.490Z,51.20
2018-10-01T16:50:07.672Z,51.10
2018-10-01T16:55:11.753Z,51.00
2018-10-01T17:00:15.551Z,51.10
2018-10-01T17:05:19.565Z,51.20
2018-10-01T17:10:23.726Z,51.30
2018-10-01T17:15:28.071Z,51.40
2018-10-01T17:20:31.746Z,51.40
2018-10-01T17:25:35.773Z,51.30
2018-10-01T17:30:40.119Z,51.30
2018-10-01T17:35:44.086Z,51.30
2018-10-01T17:40:48.091Z,51.40
2018-10-01T17:45:52.087Z,51.50
2018-10-01T17:50:56.042Z,51.30
2018-10-01T17:56:00.476Z,51.20
2018-10-01T18:01:04.557Z,51.20
2018-10-01T18:06:08.291Z,51.00
2018-10-01T18:11:12.068Z,51.00
2018-10-01T18:16:15.763Z,51.00
2018-10-01T18:21:19.481Z,51.00
2018-10-01T18:26:23.082Z,51.10
2018-10-01T18:31:26.771Z,51.10
2018-10-01T18:36:30.420Z,51.20
2018-10-01T18:41:34.179Z,51.20
2018-10-01T18:46:37.961Z,51.20
2018-10-01T18:51:41.760Z,51.20
2018-10-01T18:56:45.821Z,51.30
2018-10-01T19:01:49.581Z,51.20
2018-10-01T19:06:53.254Z,51.30
2018-10-01T19:11:57.054Z,51.30
2018-10-01T19:17:01.253Z,51.40
2018-10-01T19:22:04.971Z,51.40
2018-10-01T19:27:09.281Z,51.40
2018-10-01T19:32:13.219Z,51.40
2018-10-01T19:37:17.210Z,51.40
2018-10-01T19:42:21.638Z,51.40
2018-10-01T19:47:26.268Z,51.40
2018-10-01T19:52:30.505Z,51.40
2018-10-01T19:57:34.606Z,51.40
2018-10-01T20:02:38.648Z,51.40
2018-10-01T20:07:42.818Z,51.40
2018-10-01T20:12:46.816Z,51.30
2018-10-01T20:17:50.789Z,51.40
2018-10-01T20:22:54.891Z,51.40
2018-10-01T20:27:59.065Z,51.40
2018-10-01T20:33:03.468Z,51.30
2018-10-01T20:38:07.620Z,51.40
2018-10-01T20:43:11.607Z,51.30
2018-10-01T20:48:15.353Z,51.30
2018-10-01T20:53:19.453Z,51.30
2018-10-01T20:58:23.585Z,52.10
2018-10-01T21:03:27.666Z,52.20
2018-10-01T21:08:38.966Z,52.20
2018-10-01T21:13:43.000Z,52.20
2018-10-01T21:18:46.864Z,52.20
2018-10-01T21:23:50.829Z,52.20
2018-10-01T21:29:12.606Z,52.20
2018-10-01T21:34:16.585Z,52.20
2018-10-01T21:39:38.534Z,52.10
2018-10-01T21:44:42.919Z,52.10
2018-10-01T21:49:46.957Z,52.10
2018-10-01T21:54:51.511Z,52.10
2018-10-01T21:59:55.400Z,52.10
2018-10-01T22:04:59.276Z,52.10
2018-10-01T22:10:03.525Z,52.10
2018-10-01T22:15:07.936Z,52.10
2018-10-01T22:20:11.614Z,52.10
2018-10-01T22:25:15.789Z,52.10
2018-10-01T22:30:19.429Z,52.10
2018-10-01T22:35:23.107Z,52.10
2018-10-01T22:40:26.763Z,52.10
2018-10-01T22:45:30.572Z,52.20
2018-10-01T22:50:34.605Z,52.20
2018-10-01T22:55:38.559Z,52.30
2018-10-01T23:00:42.265Z,52.20
2018-10-01T23:05:45.923Z,52.30
2018-10-01T23:10:50.570Z,52.30
2018-10-01T23:15:54.251Z,52.30
2018-10-01T23:20:58.096Z,52.30
2018-10-01T23:26:01.794Z,52.30
2018-10-01T23:31:06.317Z,52.40
2018-10-01T23:36:10.195Z,52.30
2018-10-01T23:41:13.930Z,51.50
2018-10-01T23:46:17.695Z,51.60
2018-10-01T23:51:21.421Z,51.60
2018-10-01T23:56:25.202Z,51.60
